createdAt,value
2018-03-15T00:02:28.679Z,7.53
2018-03-15T00:04:56.984Z,7.51
2018-03-15T00:07:25.303Z,7.54
2018-03-15T00:09:53.576Z,7.60
2018-03-15T00:12:22.656Z,7.54
2018-03-15T00:14:50.993Z,7.44
2018-03-15T00:17:19.298Z,7.36
2018-03-15T00:19:47.935Z,7.39
2018-03-15T00:22:16.316Z,7.34
2018-03-15T00:24:44.598Z,7.13
2018-03-15T00:27:13.124Z,7.09
2018-03-15T00:29:41.387Z,7.11
2018-03-15T00:32:09.824Z,6.97
2018-03-15T00:34:38.877Z,6.97
2018-03-15T00:37:07.183Z,6.97
2018-03-15T00:39:36.472Z,6.91
2018-03-15T00:42:04.878Z,6.77
2018-03-15T00:44:33.152Z,6.79
2018-03-15T00:47:02.194Z,6.74
2018-03-15T00:49:30.549Z,6.71
2018-03-15T00:51:59.108Z,6.80
2018-03-15T00:54:27.584Z,6.88
2018-03-15T00:56:56.927Z,6.87
2018-03-15T00:59:25.204Z,6.85
2018-03-15T01:01:53.482Z,6.85
2018-03-15T01:04:21.758Z,6.93
2018-03-15T01:06:50.043Z,6.95
2018-03-15T01:09:18.366Z,6.94
2018-03-15T01:11:46.676Z,6.82
2018-03-15T01:14:14.940Z,6.69
2018-03-15T01:16:43.172Z,6.64
2018-03-15T01:19:12.259Z,6.77
2018-03-15T01:21:42.121Z,6.74
2018-03-15T01:24:10.558Z,6.45
2018-03-15T01:26:39.766Z,6.47
2018-03-15T01:29:10.096Z,6.30
2018-03-15T01:31:40.252Z,6.25
2018-03-15T01:34:08.553Z,6.26
2018-03-15T01:36:36.878Z,6.36
2018-03-15T01:39:05.167Z,6.49
2018-03-15T01:41:33.508Z,6.45
2018-03-15T01:44:01.862Z,6.50
2018-03-15T01:46:30.179Z,6.36
2018-03-15T01:48:59.259Z,6.38
2018-03-15T01:51:29.598Z,6.34
2018-03-15T01:53:58.657Z,6.36
2018-03-15T01:56:27.513Z,6.41
2018-03-15T01:58:55.804Z,6.38
2018-03-15T02:01:24.118Z,6.38
2018-03-15T02:03:52.569Z,6.41
2018-03-15T02:06:20.847Z,6.37
2018-03-15T02:08:49.205Z,6.36
2018-03-15T02:11:17.583Z,6.46
2018-03-15T02:13:45.908Z,6.55
2018-03-15T02:16:14.336Z,6.53
2018-03-15T02:18:42.688Z,6.53
2018-03-15T02:21:11.253Z,6.57
2018-03-15T02:23:40.329Z,6.66
2018-03-15T02:26:10.197Z,6.62
2018-03-15T02:28:38.690Z,6.64
2018-03-15T02:31:06.967Z,6.67
2018-03-15T02:33:35.262Z,6.56
2018-03-15T02:36:03.661Z,6.47
2018-03-15T02:38:33.496Z,6.53
2018-03-15T02:41:02.653Z,6.32
2018-03-15T02:43:31.073Z,6.31
2018-03-15T02:46:00.130Z,6.31
2018-03-15T02:48:28.477Z,6.22
2018-03-15T02:50:56.862Z,6.28
2018-03-15T02:53:25.408Z,6.13
2018-03-15T02:55:54.601Z,6.16
2018-03-15T02:58:23.659Z,6.21
2018-03-15T03:00:52.075Z,6.11
2018-03-15T03:03:21.290Z,6.07
2018-03-15T03:05:49.547Z,6.07
2018-03-15T03:08:18.580Z,6.09
2018-03-15T03:10:46.834Z,5.97
2018-03-15T03:13:15.586Z,5.87
2018-03-15T03:15:43.878Z,5.91
2018-03-15T03:18:13.008Z,5.90
2018-03-15T03:20:41.352Z,5.97
2018-03-15T03:23:09.633Z,6.05
2018-03-15T03:25:38.694Z,5.99
2018-03-15T03:28:07.130Z,5.89
2018-03-15T03:30:35.629Z,5.92
2018-03-15T03:33:05.282Z,5.84
2018-03-15T03:35:34.342Z,5.78
2018-03-15T03:38:02.673Z,5.86
2018-03-15T03:40:30.932Z,5.92
2018-03-15T03:43:00.007Z,5.91
2018-03-15T03:45:28.388Z,5.99
2018-03-15T03:47:56.651Z,5.96
2018-03-15T03:50:25.123Z,5.94
2018-03-15T03:52:53.423Z,5.85
2018-03-15T03:55:21.674Z,5.83
2018-03-15T03:57:50.015Z,5.93
2018-03-15T04:00:18.554Z,5.97
2018-03-15T04:02:47.058Z,6.02
2018-03-15T04:05:16.148Z,5.93
2018-03-15T04:07:45.518Z,5.90
2018-03-15T04:10:14.094Z,5.87
2018-03-15T04:12:42.368Z,5.91
2018-03-15T04:15:10.649Z,6.01
2018-03-15T04:17:39.068Z,5.95
2018-03-15T04:20:08.105Z,6.03
2018-03-15T04:22:36.431Z,5.92
2018-03-15T04:25:05.500Z,5.88
2018-03-15T04:27:33.838Z,5.91
2018-03-15T04:30:02.084Z,5.92
2018-03-15T04:32:31.124Z,5.96
2018-03-15T04:35:00.698Z,5.85
2018-03-15T04:37:29.179Z,5.64
2018-03-15T04:39:57.459Z,5.64
2018-03-15T04:42:25.743Z,5.55
2018-03-15T04:44:54.067Z,5.47
2018-03-15T04:47:22.473Z,5.47
2018-03-15T04:49:51.046Z,5.58
2018-03-15T04:52:20.227Z,5.67
2018-03-15T04:54:48.669Z,5.76
2018-03-15T04:57:17.224Z,5.77
2018-03-15T04:59:45.740Z,5.82
2018-03-15T05:02:14.279Z,5.79
2018-03-15T05:04:43.844Z,5.74
2018-03-15T05:07:12.179Z,5.69
2018-03-15T05:09:40.601Z,5.67
2018-03-15T05:12:09.068Z,5.60
2018-03-15T05:14:37.478Z,5.57
2018-03-15T05:17:05.778Z,5.66
2018-03-15T05:19:34.008Z,5.50
2018-03-15T05:22:02.381Z,5.52
2018-03-15T05:24:30.718Z,5.48
2018-03-15T05:26:59.093Z,5.47
2018-03-15T05:29:28.313Z,5.48
2018-03-15T05:31:56.758Z,5.38
2018-03-15T05:34:26.955Z,5.38
2018-03-15T05:36:55.249Z,5.44
2018-03-15T05:39:23.553Z,5.50
2018-03-15T05:41:51.825Z,5.59
2018-03-15T05:44:20.330Z,5.56
2018-03-15T05:46:48.583Z,5.43
2018-03-15T05:49:16.835Z,5.38
2018-03-15T05:51:45.135Z,5.40
2018-03-15T05:54:13.409Z,5.48
2018-03-15T05:56:41.755Z,5.53
2018-03-15T05:59:10.164Z,5.56
2018-03-15T06:01:38.823Z,5.67
2018-03-15T06:04:07.170Z,5.73
2018-03-15T06:06:35.461Z,5.68
2018-03-15T06:09:03.713Z,5.88
2018-03-15T06:11:32.009Z,5.84
2018-03-15T06:14:00.309Z,5.87
2018-03-15T06:16:29.610Z,5.83
2018-03-15T06:18:57.878Z,5.81
2018-03-15T06:21:26.295Z,5.84
2018-03-15T06:23:54.588Z,5.84
2018-03-15T06:26:22.928Z,5.76
2018-03-15T06:28:52.025Z,5.80
2018-03-15T06:31:22.174Z,5.86
2018-03-15T06:33:50.523Z,5.89
2018-03-15T06:36:19.667Z,5.93
2018-03-15T06:38:48.143Z,5.93
2018-03-15T06:41:17.338Z,7.44
2018-03-15T06:43:45.636Z,10.58
2018-03-15T06:46:15.044Z,12.00
2018-03-15T06:48:43.865Z,13.45
2018-03-15T06:51:13.113Z,14.04
2018-03-15T06:53:41.366Z,14.20
2018-03-15T06:56:09.838Z,13.65
2018-03-15T06:58:38.454Z,12.19
2018-03-15T07:01:06.784Z,10.97
2018-03-15T07:03:36.960Z,9.97
2018-03-15T07:06:05.294Z,9.15
2018-03-15T07:08:33.694Z,8.68
2018-03-15T07:11:02.133Z,8.32
2018-03-15T07:13:30.439Z,8.06
2018-03-15T07:15:58.763Z,7.71
2018-03-15T07:18:27.139Z,7.56
2018-03-15T07:20:55.391Z,7.41
2018-03-15T07:23:23.688Z,7.39
2018-03-15T07:25:51.928Z,7.45
2018-03-15T07:28:20.240Z,7.38
2018-03-15T07:30:48.528Z,7.42
2018-03-15T07:33:17.451Z,7.46
2018-03-15T07:35:45.781Z,7.48
2018-03-15T07:38:14.151Z,7.51
2018-03-15T07:40:42.424Z,7.47
2018-03-15T07:43:10.725Z,7.48
2018-03-15T07:45:39.000Z,7.54
2018-03-15T07:48:07.334Z,7.66
2018-03-15T07:50:35.649Z,7.64
2018-03-15T07:53:03.960Z,7.67
2018-03-15T07:55:33.043Z,7.75
2018-03-15T07:58:02.091Z,7.91
2018-03-15T08:00:30.385Z,7.94
2018-03-15T08:02:58.645Z,7.98
2018-03-15T08:05:26.954Z,8.05
2018-03-15T08:07:55.250Z,8.13
2018-03-15T08:10:24.369Z,8.09
2018-03-15T08:12:52.739Z,8.04
2018-03-15T08:15:21.051Z,8.07
2018-03-15T08:17:49.446Z,8.14
2018-03-15T08:20:17.876Z,8.22
2018-03-15T08:22:47.305Z,8.27
2018-03-15T08:25:15.595Z,8.45
2018-03-15T08:27:44.056Z,8.56
2018-03-15T08:30:12.440Z,8.67
2018-03-15T08:32:40.846Z,8.71
2018-03-15T08:35:09.177Z,8.81
2018-03-15T08:37:37.406Z,8.89
2018-03-15T08:40:06.030Z,8.94
2018-03-15T08:42:34.440Z,9.03
2018-03-15T08:45:02.910Z,9.11
2018-03-15T08:47:31.170Z,9.22
2018-03-15T08:49:59.571Z,9.28
2018-03-15T08:52:27.836Z,9.44
2018-03-15T08:54:56.159Z,9.52
2018-03-15T08:57:25.274Z,9.59
2018-03-15T08:59:54.466Z,9.70
2018-03-15T09:02:23.530Z,9.76
2018-03-15T09:04:51.893Z,9.81
2018-03-15T09:07:20.191Z,9.93
2018-03-15T09:09:48.447Z,9.97
2018-03-15T09:12:16.744Z,10.00
2018-03-15T09:14:45.176Z,10.01
2018-03-15T09:17:13.662Z,10.15
2018-03-15T09:19:41.966Z,10.26
2018-03-15T09:22:10.275Z,10.37
2018-03-15T09:24:39.527Z,10.40
2018-03-15T09:27:07.918Z,10.47
2018-03-15T09:29:36.200Z,10.58
2018-03-15T09:32:06.046Z,10.68
2018-03-15T09:34:34.394Z,10.81
2018-03-15T09:37:02.695Z,10.90
2018-03-15T09:39:30.993Z,10.96
2018-03-15T09:41:59.579Z,11.14
2018-03-15T09:44:28.201Z,11.21
2018-03-15T09:46:56.495Z,11.23
2018-03-15T09:49:24.817Z,11.31
2018-03-15T09:51:53.106Z,11.46
2018-03-15T09:54:21.442Z,11.56
2018-03-15T09:56:50.855Z,11.70
2018-03-15T09:59:19.186Z,11.81
2018-03-15T10:01:47.792Z,11.92
2018-03-15T10:04:17.071Z,11.99
2018-03-15T10:06:45.380Z,12.08
2018-03-15T10:09:14.632Z,12.11
2018-03-15T10:11:43.768Z,12.20
2018-03-15T10:14:13.315Z,12.34
2018-03-15T10:16:42.706Z,12.31
2018-03-15T10:19:12.426Z,12.34
2018-03-15T10:21:40.854Z,12.38
2018-03-15T10:24:09.190Z,12.45
2018-03-15T10:26:37.540Z,12.52
2018-03-15T10:29:06.178Z,12.53
2018-03-15T10:31:34.560Z,12.54
2018-03-15T10:34:03.675Z,12.62
2018-03-15T10:36:32.944Z,12.74
2018-03-15T10:39:01.465Z,12.79
2018-03-15T10:41:30.771Z,12.93
2018-03-15T10:43:59.196Z,12.97
2018-03-15T10:46:27.616Z,13.02
2018-03-15T10:48:56.769Z,13.12
2018-03-15T10:51:25.990Z,13.24
2018-03-15T10:53:54.306Z,13.45
2018-03-15T10:56:22.633Z,13.58
2018-03-15T10:58:50.985Z,13.66
2018-03-15T11:01:22.261Z,13.73
2018-03-15T11:03:50.685Z,13.73
2018-03-15T11:06:24.500Z,13.76
2018-03-15T11:08:58.367Z,13.78
2018-03-15T11:11:27.708Z,13.79
2018-03-15T11:13:56.167Z,13.84
2018-03-15T11:16:25.586Z,13.85
2018-03-15T11:18:53.972Z,13.94
2018-03-15T11:21:22.358Z,14.06
2018-03-15T11:23:51.118Z,14.18
2018-03-15T11:26:19.560Z,14.20
2018-03-15T11:28:47.858Z,14.30
2018-03-15T11:31:16.376Z,14.40
2018-03-15T11:33:44.684Z,14.43
2018-03-15T11:36:14.232Z,14.51
2018-03-15T11:38:43.386Z,14.62
2018-03-15T11:41:11.705Z,14.71
2018-03-15T11:43:41.018Z,14.86
2018-03-15T11:46:10.171Z,14.97
2018-03-15T11:48:38.593Z,14.95
2018-03-15T11:51:06.862Z,14.97
2018-03-15T11:53:36.118Z,15.04
2018-03-15T11:56:04.457Z,15.11
2018-03-15T11:58:32.811Z,15.10
2018-03-15T12:01:02.077Z,15.17
2018-03-15T12:03:30.453Z,15.21
2018-03-15T12:05:58.771Z,15.31
2018-03-15T12:08:28.764Z,15.40
2018-03-15T12:10:57.183Z,15.47
2018-03-15T12:13:25.471Z,15.31
2018-03-15T12:15:53.985Z,15.38
2018-03-15T12:18:22.487Z,15.43
2018-03-15T12:20:52.303Z,15.46
2018-03-15T12:23:20.851Z,15.44
2018-03-15T12:25:49.235Z,15.51
2018-03-15T12:28:17.528Z,15.53
2018-03-15T12:30:45.795Z,15.54
2018-03-15T12:33:14.179Z,15.48
2018-03-15T12:35:42.478Z,15.38
2018-03-15T12:38:11.618Z,15.39
2018-03-15T12:40:40.152Z,15.40
2018-03-15T12:43:08.479Z,15.47
2018-03-15T12:45:36.906Z,15.48
2018-03-15T12:48:05.307Z,15.50
2018-03-15T12:50:33.633Z,15.51
2018-03-15T12:53:01.936Z,15.57
2018-03-15T12:55:30.205Z,15.59
2018-03-15T12:57:58.496Z,15.57
2018-03-15T13:00:27.569Z,15.56
2018-03-15T13:02:56.156Z,15.63
2018-03-15T13:05:24.825Z,15.53
2018-03-15T13:07:53.148Z,15.47
2018-03-15T13:10:22.200Z,15.44
2018-03-15T13:12:50.738Z,15.39
2018-03-15T13:15:19.052Z,15.46
2018-03-15T13:17:47.379Z,15.62
2018-03-15T13:20:16.453Z,15.71
2018-03-15T13:22:44.828Z,15.77
2018-03-15T13:25:13.292Z,15.77
2018-03-15T13:27:41.758Z,15.80
2018-03-15T13:30:10.137Z,15.82
2018-03-15T13:32:39.522Z,15.74
2018-03-15T13:35:07.823Z,15.74
2018-03-15T13:37:37.259Z,15.70
2018-03-15T13:40:06.312Z,15.65
2018-03-15T13:42:34.613Z,15.54
2018-03-15T13:45:02.892Z,15.44
2018-03-15T13:47:31.232Z,15.41
2018-03-15T13:49:59.553Z,15.36
2018-03-15T13:52:27.852Z,15.26
2018-03-15T13:54:57.086Z,15.19
2018-03-15T13:57:25.369Z,15.17
2018-03-15T13:59:54.288Z,15.04
2018-03-15T14:02:22.567Z,14.98
2018-03-15T14:04:51.168Z,14.97
2018-03-15T14:07:20.362Z,14.94
2018-03-15T14:09:50.990Z,14.91
2018-03-15T14:12:20.106Z,14.82
2018-03-15T14:14:48.376Z,14.75
2018-03-15T14:17:17.523Z,14.69
2018-03-15T14:19:45.861Z,14.63
2018-03-15T14:22:14.186Z,14.71
2018-03-15T14:24:42.492Z,14.63
2018-03-15T14:27:11.703Z,14.68
2018-03-15T14:29:40.942Z,14.66
2018-03-15T14:32:09.225Z,14.59
2018-03-15T14:34:37.526Z,14.58
2018-03-15T14:37:05.936Z,14.57
2018-03-15T14:39:34.244Z,14.61
2018-03-15T14:42:03.666Z,14.59
2018-03-15T14:44:32.253Z,14.57
2018-03-15T14:47:00.522Z,14.58
2018-03-15T14:49:28.878Z,14.44
2018-03-15T14:51:57.218Z,14.35
2018-03-15T14:54:26.294Z,14.44
2018-03-15T14:56:54.617Z,14.38
2018-03-15T14:59:22.921Z,14.44
2018-03-15T15:01:51.223Z,14.35
2018-03-15T15:04:19.502Z,14.36
2018-03-15T15:06:48.024Z,14.38
2018-03-15T15:09:16.339Z,14.27
2018-03-15T15:11:44.703Z,14.22
2018-03-15T15:14:13.136Z,14.25
2018-03-15T15:16:42.242Z,14.22
2018-03-15T15:19:10.694Z,14.20
2018-03-15T15:21:39.119Z,14.24
2018-03-15T15:24:07.453Z,14.17
2018-03-15T15:26:35.898Z,14.17
2018-03-15T15:29:04.378Z,14.12
2018-03-15T15:31:32.700Z,14.15
2018-03-15T15:34:01.794Z,14.15
2018-03-15T15:36:30.324Z,14.11
2018-03-15T15:38:59.758Z,14.08
2018-03-15T15:41:28.063Z,14.06
2018-03-15T15:43:56.359Z,13.99
2018-03-15T15:46:24.700Z,13.89
2018-03-15T15:48:53.276Z,13.91
2018-03-15T15:51:21.558Z,13.87
2018-03-15T15:53:49.963Z,13.87
2018-03-15T15:56:18.277Z,13.83
2018-03-15T15:58:46.644Z,13.75
2018-03-15T16:01:15.831Z,13.76
2018-03-15T16:03:44.121Z,13.75
2018-03-15T16:06:12.452Z,13.63
2018-03-15T16:08:42.667Z,13.57
2018-03-15T16:11:11.986Z,13.49
2018-03-15T16:13:41.305Z,13.57
2018-03-15T16:16:09.617Z,13.42
2018-03-15T16:18:38.182Z,13.39
2018-03-15T16:21:06.457Z,13.28
2018-03-15T16:23:34.870Z,13.21
2018-03-15T16:26:03.263Z,13.21
2018-03-15T16:28:32.353Z,13.14
2018-03-15T16:31:00.842Z,13.10
2018-03-15T16:33:29.914Z,13.11
2018-03-15T16:35:58.341Z,12.96
2018-03-15T16:38:26.692Z,12.92
2018-03-15T16:40:56.183Z,12.89
2018-03-15T16:43:24.617Z,12.86
2018-03-15T16:45:52.912Z,12.75
2018-03-15T16:48:21.367Z,12.74
2018-03-15T16:50:49.831Z,12.68
2018-03-15T16:53:18.548Z,12.69
2018-03-15T16:55:46.928Z,12.50
2018-03-15T16:58:15.608Z,12.43
2018-03-15T17:00:43.993Z,12.41
2018-03-15T17:03:12.369Z,12.35
2018-03-15T17:05:40.844Z,12.29
2018-03-15T17:08:09.210Z,12.21
2018-03-15T17:10:38.132Z,12.17
2018-03-15T17:13:06.626Z,12.17
2018-03-15T17:15:34.995Z,12.18
2018-03-15T17:18:03.439Z,12.20
2018-03-15T17:20:32.030Z,12.12
2018-03-15T17:23:00.456Z,12.06
2018-03-15T17:25:28.786Z,12.07
2018-03-15T17:27:57.188Z,12.05
2018-03-15T17:30:25.603Z,12.07
2018-03-15T17:32:54.839Z,11.98
2018-03-15T17:35:23.371Z,11.90
2018-03-15T17:37:51.764Z,11.90
2018-03-15T17:40:20.940Z,11.86
2018-03-15T17:42:49.296Z,11.82
2018-03-15T17:45:17.657Z,11.79
2018-03-15T17:47:46.464Z,11.79
2018-03-15T17:50:15.226Z,11.81
2018-03-15T17:52:43.588Z,11.86
2018-03-15T17:55:11.980Z,11.84
2018-03-15T17:57:40.779Z,11.69
2018-03-15T18:00:09.220Z,11.72
2018-03-15T18:02:38.401Z,11.62
2018-03-15T18:05:07.613Z,11.63
2018-03-15T18:07:36.703Z,11.63
2018-03-15T18:10:05.072Z,11.52
2018-03-15T18:12:33.405Z,11.48
2018-03-15T18:15:02.208Z,11.44
2018-03-15T18:17:30.742Z,11.59
2018-03-15T18:20:00.099Z,11.51
2018-03-15T18:22:28.547Z,11.48
2018-03-15T18:24:57.098Z,11.45
2018-03-15T18:27:26.372Z,11.53
2018-03-15T18:29:54.767Z,11.52
2018-03-15T18:32:23.180Z,11.42
2018-03-15T18:34:51.559Z,11.43
2018-03-15T18:37:20.004Z,11.48
2018-03-15T18:39:48.526Z,11.46
2018-03-15T18:42:17.135Z,11.43
2018-03-15T18:44:45.565Z,11.42
2018-03-15T18:47:14.713Z,11.39
2018-03-15T18:49:43.089Z,11.41
2018-03-15T18:52:11.452Z,11.41
2018-03-15T18:54:40.030Z,11.34
2018-03-15T18:57:08.455Z,11.35
2018-03-15T18:59:36.799Z,11.35
2018-03-15T19:02:05.352Z,11.30
2018-03-15T19:04:33.957Z,11.30
2018-03-15T19:07:02.448Z,11.36
2018-03-15T19:09:30.760Z,11.29
2018-03-15T19:11:59.110Z,11.31
2018-03-15T19:14:27.560Z,11.26
2018-03-15T19:16:55.917Z,11.31
2018-03-15T19:19:24.434Z,11.27
2018-03-15T19:21:52.761Z,11.23
2018-03-15T19:24:21.191Z,11.14
2018-03-15T19:26:49.521Z,11.20
2018-03-15T19:29:18.636Z,11.18
2018-03-15T19:31:47.093Z,11.08
2018-03-15T19:34:16.318Z,11.03
2018-03-15T19:36:44.697Z,11.02
2018-03-15T19:39:13.609Z,11.05
2018-03-15T19:41:42.093Z,11.12
2018-03-15T19:44:11.377Z,11.11
2018-03-15T19:46:39.831Z,11.07
2018-03-15T19:49:08.225Z,11.16
2018-03-15T19:51:36.566Z,11.08
2018-03-15T19:54:07.558Z,11.08
2018-03-15T19:56:37.467Z,11.10
2018-03-15T19:59:05.831Z,11.07
2018-03-15T20:01:35.342Z,11.06
2018-03-15T20:04:03.626Z,11.08
2018-03-15T20:06:31.993Z,11.06
2018-03-15T20:09:00.445Z,11.09
2018-03-15T20:11:30.475Z,11.10
2018-03-15T20:13:58.978Z,11.07
2018-03-15T20:16:27.344Z,11.05
2018-03-15T20:19:01.390Z,11.07
2018-03-15T20:21:29.713Z,11.16
2018-03-15T20:24:04.498Z,11.12
2018-03-15T20:26:32.935Z,11.08
2018-03-15T20:29:01.250Z,11.06
2018-03-15T20:31:29.775Z,11.05
2018-03-15T20:34:04.364Z,11.04
2018-03-15T20:36:32.751Z,10.95
2018-03-15T20:39:01.151Z,10.89
2018-03-15T20:41:32.402Z,10.88
2018-03-15T20:44:01.679Z,10.87
2018-03-15T20:46:35.738Z,10.87
2018-03-15T20:49:09.726Z,10.92
2018-03-15T20:51:38.833Z,10.91
2018-03-15T20:54:07.354Z,10.94
2018-03-15T20:56:35.775Z,10.94
2018-03-15T20:59:04.949Z,10.95
2018-03-15T21:01:34.046Z,11.02
2018-03-15T21:04:02.498Z,11.05
2018-03-15T21:06:30.862Z,11.09
2018-03-15T21:08:59.316Z,11.10
2018-03-15T21:11:28.435Z,11.12
2018-03-15T21:13:56.801Z,11.10
2018-03-15T21:16:25.154Z,11.03
2018-03-15T21:18:53.563Z,10.98
2018-03-15T21:21:22.094Z,11.01
2018-03-15T21:23:50.873Z,10.95
2018-03-15T21:26:19.666Z,10.97
2018-03-15T21:28:48.779Z,10.97
2018-03-15T21:31:17.252Z,10.93
2018-03-15T21:33:47.438Z,10.93
2018-03-15T21:36:15.863Z,10.90
2018-03-15T21:38:44.566Z,10.90
2018-03-15T21:41:12.994Z,10.87
2018-03-15T21:43:41.470Z,10.89
2018-03-15T21:46:10.108Z,10.87
2018-03-15T21:48:38.676Z,10.82
2018-03-15T21:51:07.079Z,10.77
2018-03-15T21:53:36.245Z,10.76
2018-03-15T21:56:05.649Z,10.79
2018-03-15T21:58:34.004Z,10.77
2018-03-15T22:01:03.382Z,10.66
2018-03-15T22:03:32.106Z,10.58
2018-03-15T22:06:01.829Z,10.51
2018-03-15T22:08:32.111Z,10.46
2018-03-15T22:11:00.551Z,10.42
2018-03-15T22:13:29.781Z,10.40
2018-03-15T22:15:59.184Z,10.38
2018-03-15T22:18:27.510Z,10.33
2018-03-15T22:20:55.834Z,10.29
2018-03-15T22:23:24.126Z,10.31
2018-03-15T22:25:52.590Z,10.18
2018-03-15T22:28:20.920Z,10.08
2018-03-15T22:30:49.216Z,9.98
2018-03-15T22:33:18.305Z,9.94
2018-03-15T22:35:47.588Z,9.99
2018-03-15T22:38:16.064Z,9.90
2018-03-15T22:40:47.005Z,9.80
2018-03-15T22:43:16.454Z,9.75
2018-03-15T22:45:44.897Z,9.67
2018-03-15T22:48:13.212Z,9.63
2018-03-15T22:50:41.520Z,9.62
2018-03-15T22:53:11.581Z,9.66
2018-03-15T22:55:40.737Z,9.64
2018-03-15T22:58:09.090Z,9.54
2018-03-15T23:00:37.400Z,9.53
2018-03-15T23:03:05.682Z,9.62
2018-03-15T23:05:34.032Z,9.58
2018-03-15T23:08:02.328Z,9.62
2018-03-15T23:10:30.635Z,9.62
2018-03-15T23:12:59.032Z,9.58
2018-03-15T23:15:27.344Z,9.61
2018-03-15T23:17:55.915Z,9.67
2018-03-15T23:20:24.239Z,9.65
2018-03-15T23:22:52.985Z,9.75
2018-03-15T23:25:21.294Z,9.77
2018-03-15T23:27:49.774Z,9.81
2018-03-15T23:30:18.055Z,9.79
2018-03-15T23:32:46.356Z,9.71
2018-03-15T23:35:15.434Z,9.70
2018-03-15T23:37:43.949Z,9.76
2018-03-15T23:40:12.326Z,9.80
2018-03-15T23:42:40.630Z,9.81
2018-03-15T23:45:09.474Z,9.86
2018-03-15T23:47:38.725Z,9.82
2018-03-15T23:50:07.035Z,9.72
2018-03-15T23:52:36.083Z,9.72
2018-03-15T23:55:04.506Z,9.74
2018-03-15T23:57:33.638Z,9.79
